Time;durP1;ratioP1;P1;durP2;ratioP2;P2;SDS_P1;SDS_P2;PMS_P1;PMS_P2;Temp;Humidity;BMP_temperature;BMP_pressure;BME280_temperature;BME280_humidity;BME280_pressure;Samples;Min_cycle;Max_cycle;Signal;HPM_P1;HPM_P2
2022/05/04 00:01:51;;;;;;;14.90;12.10;;;;;;;;;;1837109;76;21112;-81
2022/05/04 00:04:24;;;;;;;20.10;13.60;;;;;;;;;;1797816;77;21123;-80
2022/05/04 00:06:55;;;;;;;18.40;13.65;;;;;;;;;;1784228;78;21147;-81
2022/05/04 00:09:25;;;;;;;16.55;12.80;;;;;;;;;;1823783;77;21232;-80
2022/05/04 00:11:55;;;;;;;16.95;12.80;;;;;;;;;;1791144;77;21126;-80
2022/05/04 00:14:26;;;;;;;17.80;12.53;;;;;;;;;;1784594;79;21152;-80
2022/05/04 00:16:58;;;;;;;16.65;12.03;;;;;;;;;;1806162;77;21197;-80
2022/05/04 00:19:29;;;;;;;16.50;11.63;;;;;;;;;;1808135;77;21164;-80
2022/05/04 00:22:00;;;;;;;16.90;12.50;;;;;;;;;;1807695;78;21228;-79
2022/05/04 00:24:30;;;;;;;17.15;12.03;;;;;;;;;;1785736;79;21201;-79
2022/05/04 00:27:00;;;;;;;18.70;11.88;;;;;;;;;;1798603;78;21146;-79
2022/05/04 00:29:30;;;;;;;16.45;11.03;;;;;;;;;;1815914;77;21193;-80
2022/05/04 00:32:04;;;;;;;18.15;12.28;;;;;;;;;;1805667;77;21142;-77
2022/05/04 00:34:38;;;;;;;18.37;12.35;;;;;;;;;;1772406;78;21150;-78
2022/05/04 00:37:10;;;;;;;17.85;12.88;;;;;;;;;;1781816;80;21176;-79
2022/05/04 00:39:40;;;;;;;16.75;12.30;;;;;;;;;;1837421;77;21764;-79
2022/05/04 00:42:12;;;;;;;19.10;12.93;;;;;;;;;;1816788;76;21278;-79
2022/05/04 00:44:44;;;;;;;15.90;11.68;;;;;;;;;;1822409;76;21264;-79
2022/05/04 00:47:14;;;;;;;16.12;12.03;;;;;;;;;;1809316;77;21756;-79
2022/05/04 00:49:49;;;;;;;16.20;10.70;;;;;;;;;;1797447;79;21111;-79
2022/05/04 00:52:18;;;;;;;18.67;11.97;;;;;;;;;;1778566;77;21213;-79
2022/05/04 00:54:50;;;;;;;15.75;11.40;;;;;;;;;;1791536;77;21159;-80
2022/05/04 00:58:54;;;;;;;16.23;12.18;;;;;;;;;;1796647;77;21344;-79
2022/05/04 00:59:52;;;;;;;14.28;11.10;;;;;;;;;;1802322;78;21197;-79
2022/05/04 01:02:23;;;;;;;18.00;11.38;;;;;;;;;;1834001;77;21158;-78
2022/05/04 01:04:53;;;;;;;15.03;10.70;;;;;;;;;;1806129;77;21277;-79
2022/05/04 01:07:24;;;;;;;16.10;11.03;;;;;;;;;;1836088;77;21236;-77
2022/05/04 01:09:55;;;;;;;14.98;10.13;;;;;;;;;;1792639;76;21230;-78
2022/05/04 01:12:27;;;;;;;13.18;10.03;;;;;;;;;;1817415;77;21618;-78
2022/05/04 01:14:57;;;;;;;13.00;9.20;;;;;;;;;;1805243;77;21261;-79
2022/05/04 01:17:28;;;;;;;15.13;10.08;;;;;;;;;;1794958;77;21586;-79
2022/05/04 01:19:59;;;;;;;11.53;9.58;;;;;;;;;;1817412;77;21720;-78
2022/05/04 01:22:29;;;;;;;14.65;10.00;;;;;;;;;;1828523;77;21177;-78
2022/05/04 01:25:00;;;;;;;12.18;10.23;;;;;;;;;;1828576;77;21163;-78
2022/05/04 01:27:30;;;;;;;14.20;9.65;;;;;;;;;;1834874;74;21178;-79
2022/05/04 01:30:00;;;;;;;13.70;9.80;;;;;;;;;;1798795;77;21261;-79
2022/05/04 01:32:31;;;;;;;12.37;10.15;;;;;;;;;;1840825;77;21118;-79
2022/05/04 01:35:01;;;;;;;11.75;9.10;;;;;;;;;;1856544;77;21122;-79
2022/05/04 01:37:32;;;;;;;13.45;10.82;;;;;;;;;;1846887;77;21193;-79
2022/05/04 01:40:02;;;;;;;14.18;9.43;;;;;;;;;;1834566;77;21150;-79
2022/05/04 01:42:32;;;;;;;13.58;9.58;;;;;;;;;;1842794;77;21245;-79
2022/05/04 01:45:05;;;;;;;13.40;10.65;;;;;;;;;;1836882;77;21162;-79
2022/05/04 01:47:34;;;;;;;15.23;10.55;;;;;;;;;;1829602;77;21166;-79
2022/05/04 01:50:05;;;;;;;12.43;9.98;;;;;;;;;;1788220;78;21125;-80
2022/05/04 01:52:35;;;;;;;12.18;10.10;;;;;;;;;;1780172;79;21202;-78
2022/05/04 01:55:06;;;;;;;12.00;9.53;;;;;;;;;;1771507;78;21152;-79
2022/05/04 01:57:37;;;;;;;12.95;9.48;;;;;;;;;;1790837;79;21281;-79
2022/05/04 02:00:08;;;;;;;15.78;9.63;;;;;;;;;;1767757;79;21108;-80
2022/05/04 02:02:39;;;;;;;17.77;9.53;;;;;;;;;;1770156;80;21254;-79
2022/05/04 02:05:09;;;;;;;12.82;9.58;;;;;;;;;;1795876;78;21280;-78
2022/05/04 02:07:40;;;;;;;14.80;9.78;;;;;;;;;;1802645;77;21210;-78
2022/05/04 02:10:14;;;;;;;13.50;9.05;;;;;;;;;;1798818;78;21173;-80
2022/05/04 02:12:45;;;;;;;14.05;9.10;;;;;;;;;;1775494;79;21166;-80
2022/05/04 02:15:17;;;;;;;10.30;8.85;;;;;;;;;;1777344;78;21138;-79
2022/05/04 02:17:49;;;;;;;15.30;9.50;;;;;;;;;;1824727;78;21210;-80
2022/05/04 02:20:21;;;;;;;15.00;9.80;;;;;;;;;;1821173;78;21095;-80
2022/05/04 02:22:59;;;;;;;12.70;9.43;;;;;;;;;;1813899;78;21223;-80
2022/05/04 02:25:33;;;;;;;15.35;9.10;;;;;;;;;;1789731;77;21248;-79
2022/05/04 02:28:19;;;;;;;12.33;8.90;;;;;;;;;;1805320;78;21179;-79
2022/05/04 02:30:58;;;;;;;12.98;8.88;;;;;;;;;;1804635;77;21743;-79
2022/05/04 02:33:44;;;;;;;12.55;8.18;;;;;;;;;;1807122;78;21118;-79
2022/05/04 02:39:00;;;;;;;12.40;8.13;;;;;;;;;;1816763;77;21728;-79
2022/05/04 02:41:37;;;;;;;12.82;8.93;;;;;;;;;;1806556;77;21190;-80
2022/05/04 02:44:15;;;;;;;11.50;8.93;;;;;;;;;;1785787;79;21170;-79
2022/05/04 02:46:53;;;;;;;11.85;8.60;;;;;;;;;;1820970;76;21677;-79
2022/05/04 02:49:37;;;;;;;12.80;8.90;;;;;;;;;;1813656;77;21224;-79
2022/05/04 02:52:15;;;;;;;14.18;9.13;;;;;;;;;;1827316;77;21199;-79
2022/05/04 02:54:55;;;;;;;15.08;9.08;;;;;;;;;;1829393;75;21175;-79
2022/05/04 02:57:33;;;;;;;14.10;9.73;;;;;;;;;;1826902;77;21588;-79
2022/05/04 03:00:18;;;;;;;13.22;9.15;;;;;;;;;;1829555;77;21179;-79
2022/05/04 03:03:00;;;;;;;12.20;9.45;;;;;;;;;;1834039;77;21156;-79
2022/05/04 03:05:37;;;;;;;13.03;9.60;;;;;;;;;;1840106;77;21857;-79
2022/05/04 03:08:17;;;;;;;11.05;8.20;;;;;;;;;;1836320;77;21160;-78
2022/05/04 03:13:34;;;;;;;11.73;8.35;;;;;;;;;;1825992;77;21200;-79
2022/05/04 03:16:05;;;;;;;13.85;7.70;;;;;;;;;;1828825;77;21213;-79
2022/05/04 03:18:37;;;;;;;11.28;7.62;;;;;;;;;;1827682;76;21197;-79
2022/05/04 03:21:19;;;;;;;13.13;7.55;;;;;;;;;;1809905;77;21337;-79
2022/05/04 03:23:57;;;;;;;12.37;8.45;;;;;;;;;;1814624;77;21159;-78
2022/05/04 03:26:31;;;;;;;9.80;7.58;;;;;;;;;;1817697;76;21111;-79
2022/05/04 03:29:04;;;;;;;10.38;7.28;;;;;;;;;;1808639;77;21236;-79
2022/05/04 03:31:36;;;;;;;11.90;8.50;;;;;;;;;;1819662;77;21083;-78
2022/05/04 03:34:09;;;;;;;10.58;7.50;;;;;;;;;;1800129;77;21218;-79
2022/05/04 03:36:41;;;;;;;9.10;7.35;;;;;;;;;;1816081;77;21200;-80
2022/05/04 03:39:15;;;;;;;12.88;8.05;;;;;;;;;;1824272;77;21210;-79
2022/05/04 03:41:49;;;;;;;11.95;8.18;;;;;;;;;;1827597;77;21162;-78
2022/05/04 03:44:28;;;;;;;14.23;7.65;;;;;;;;;;1819126;76;21178;-80
2022/05/04 03:47:05;;;;;;;11.05;7.62;;;;;;;;;;1814800;77;21198;-78
2022/05/04 03:49:38;;;;;;;12.53;7.67;;;;;;;;;;1818701;77;21242;-79
2022/05/04 03:52:09;;;;;;;10.00;6.72;;;;;;;;;;1812333;77;21188;-79
2022/05/04 03:54:39;;;;;;;10.10;6.65;;;;;;;;;;1817183;77;21225;-79
2022/05/04 03:57:10;;;;;;;10.00;7.00;;;;;;;;;;1822093;77;21090;-79
2022/05/04 03:59:40;;;;;;;10.10;7.47;;;;;;;;;;1824969;77;21209;-79
2022/05/04 04:02:10;;;;;;;10.88;7.08;;;;;;;;;;1826444;77;21126;-79
2022/05/04 04:04:41;;;;;;;8.48;7.00;;;;;;;;;;1833815;77;21192;-78
2022/05/04 04:07:11;;;;;;;10.55;6.97;;;;;;;;;;1831192;77;21131;-78
2022/05/04 04:09:41;;;;;;;8.80;6.78;;;;;;;;;;1833670;76;21279;-80
2022/05/04 04:12:11;;;;;;;7.10;5.95;;;;;;;;;;1820592;75;21642;-79
2022/05/04 04:14:42;;;;;;;10.65;7.17;;;;;;;;;;1817904;77;21221;-78
2022/05/04 04:17:13;;;;;;;9.93;7.15;;;;;;;;;;1805900;77;21222;-77
2022/05/04 04:19:43;;;;;;;9.93;6.37;;;;;;;;;;1798714;77;21159;-79
2022/05/04 04:22:14;;;;;;;9.45;6.65;;;;;;;;;;1812892;77;21259;-80
2022/05/04 04:24:44;;;;;;;11.28;7.25;;;;;;;;;;1803614;77;21164;-79
2022/05/04 04:27:14;;;;;;;11.65;6.72;;;;;;;;;;1814223;78;21148;-80
2022/05/04 04:29:45;;;;;;;8.63;6.35;;;;;;;;;;1803638;78;21211;-78
2022/05/04 04:32:15;;;;;;;9.05;6.00;;;;;;;;;;1812597;76;21087;-80
2022/05/04 04:34:46;;;;;;;8.00;5.78;;;;;;;;;;1817957;77;21257;-79
2022/05/04 04:37:16;;;;;;;8.70;5.28;;;;;;;;;;1804874;75;21111;-79
2022/05/04 04:39:48;;;;;;;9.43;6.60;;;;;;;;;;1813728;77;21115;-78
2022/05/04 04:42:19;;;;;;;13.62;7.15;;;;;;;;;;1829450;77;21067;-79
2022/05/04 04:44:51;;;;;;;9.98;6.60;;;;;;;;;;1804850;77;21288;-80
2022/05/04 04:47:21;;;;;;;13.35;6.30;;;;;;;;;;1798407;78;21123;-79
2022/05/04 04:49:55;;;;;;;9.83;6.83;;;;;;;;;;1822329;76;21296;-79
2022/05/04 04:52:25;;;;;;;7.92;5.40;;;;;;;;;;1830515;77;21182;-79
2022/05/04 04:54:59;;;;;;;9.58;5.78;;;;;;;;;;1776476;78;21208;-79
2022/05/04 04:57:29;;;;;;;8.58;6.22;;;;;;;;;;1794501;77;21170;-79
2022/05/04 05:00:00;;;;;;;7.95;6.15;;;;;;;;;;1833222;77;21157;-79
2022/05/04 05:02:31;;;;;;;6.85;5.28;;;;;;;;;;1817668;77;21159;-78
2022/05/04 05:05:03;;;;;;;8.53;5.60;;;;;;;;;;1805583;78;21151;-78
2022/05/04 05:07:36;;;;;;;9.20;6.22;;;;;;;;;;1801928;77;21154;-79
2022/05/04 05:10:07;;;;;;;8.45;5.87;;;;;;;;;;1823474;77;22327;-79
2022/05/04 05:12:37;;;;;;;10.30;6.03;;;;;;;;;;1798005;76;21135;-79
2022/05/04 05:17:41;;;;;;;9.53;5.70;;;;;;;;;;1796566;77;21201;-79
2022/05/04 05:20:12;;;;;;;8.08;5.50;;;;;;;;;;1814521;77;21245;-78
2022/05/04 05:22:45;;;;;;;7.35;5.97;;;;;;;;;;1811311;77;21684;-78
2022/05/04 05:25:18;;;;;;;9.20;6.70;;;;;;;;;;1819440;77;21209;-79
2022/05/04 05:27:48;;;;;;;9.28;6.33;;;;;;;;;;1820107;76;21979;-79
2022/05/04 05:30:18;;;;;;;9.50;6.12;;;;;;;;;;1798288;77;21771;-78
2022/05/04 05:32:49;;;;;;;7.67;5.75;;;;;;;;;;1810062;75;21119;-80
2022/05/04 05:35:20;;;;;;;9.65;6.20;;;26.00;89.30;;;;;;1813391;77;21236;-80
2022/05/04 05:37:51;;;;;;;7.15;6.00;;;26.20;89.50;;;;;;1814593;77;21162;-78
2022/05/04 05:40:22;;;;;;;8.00;5.92;;;26.10;89.60;;;;;;1821167;77;21219;-78
2022/05/04 05:42:55;;;;;;;8.48;5.60;;;26.10;89.00;;;;;;1815882;75;21153;-79
2022/05/04 05:45:26;;;;;;;6.92;5.80;;;26.10;89.20;;;;;;1823579;76;21762;-80
2022/05/04 05:47:57;;;;;;;9.40;6.62;;;26.10;89.30;;;;;;1821945;75;21181;-79
2022/05/04 05:50:28;;;;;;;8.60;6.17;;;26.10;89.50;;;;;;1819548;78;21201;-78
2022/05/04 05:52:59;;;;;;;10.80;5.90;;;26.10;90.20;;;;;;1823396;78;21221;-78
2022/05/04 05:55:30;;;;;;;9.75;5.60;;;26.10;89.80;;;;;;1820678;77;21633;-79
2022/05/04 05:58:01;;;;;;;9.15;5.25;;;26.20;89.60;;;;;;1823351;77;21764;-78
2022/05/04 06:00:32;;;;;;;7.70;5.85;;;26.30;89.30;;;;;;1815408;75;21210;-78
2022/05/04 06:03:04;;;;;;;9.85;5.65;;;26.40;88.70;;;;;;1811718;78;21186;-79
2022/05/04 06:05:35;;;;;;;7.35;5.80;;;26.60;89.40;;;;;;1812625;78;21272;-79
2022/05/04 06:08:09;;;;;;;13.65;8.60;;;26.70;88.70;;;;;;1814934;77;21733;-79
2022/05/04 06:10:40;;;;;;;9.80;5.80;;;26.70;88.60;;;;;;1836472;76;21146;-80
2022/05/04 06:13:11;;;;;;;8.45;5.72;;;26.80;88.00;;;;;;1842500;76;21687;-80
2022/05/04 06:15:42;;;;;;;8.23;5.45;;;26.80;88.00;;;;;;1805600;77;21715;-79
2022/05/04 06:18:13;;;;;;;9.28;5.80;;;26.90;87.30;;;;;;1825688;78;21594;-79
2022/05/04 06:20:44;;;;;;;8.85;6.22;;;26.90;87.80;;;;;;1819871;78;21279;-80
2022/05/04 06:23:18;;;;;;;10.45;5.85;;;26.90;87.60;;;;;;1820639;77;21210;-80
2022/05/04 06:25:49;;;;;;;6.92;5.28;;;27.00;87.20;;;;;;1796770;78;21122;-80
2022/05/04 06:28:20;;;;;;;7.85;5.37;;;27.00;87.50;;;;;;1744115;80;21299;-79
2022/05/04 06:35:59;;;;;;;6.62;4.25;;;26.90;87.40;;;;;;1799205;78;21195;-79
2022/05/04 06:38:31;;;;;;;7.03;4.62;;;27.00;85.90;;;;;;1788533;78;21150;-79
2022/05/04 06:41:03;;;;;;;7.33;4.90;;;27.00;85.80;;;;;;1804332;78;21178;-79
2022/05/04 06:43:35;;;;;;;7.37;4.30;;;27.10;85.60;;;;;;1800375;77;21221;-78
2022/05/04 06:46:06;;;;;;;6.70;4.90;;;27.10;84.90;;;;;;1814462;77;21256;-79
2022/05/04 06:48:37;;;;;;;7.55;4.85;;;27.20;85.40;;;;;;1845232;77;21089;-78
2022/05/04 06:51:10;;;;;;;5.45;3.87;;;27.20;85.60;;;;;;1822559;77;21166;-78
2022/05/04 06:53:42;;;;;;;5.62;4.62;;;27.20;85.00;;;;;;1805416;77;21708;-79
2022/05/04 06:56:14;;;;;;;6.08;4.50;;;27.30;84.80;;;;;;1817854;77;21072;-79
2022/05/04 06:58:45;;;;;;;9.43;5.50;;;27.30;85.50;;;;;;1816530;77;21202;-78
2022/05/04 07:01:16;;;;;;;7.72;5.67;;;27.30;85.30;;;;;;1813417;78;21164;-78
2022/05/04 07:03:47;;;;;;;7.28;4.72;;;27.30;85.20;;;;;;1803332;77;21137;-79
2022/05/04 07:06:18;;;;;;;7.15;4.53;;;27.30;85.60;;;;;;1781235;79;21692;-78
2022/05/04 07:08:49;;;;;;;8.88;5.08;;;27.30;85.80;;;;;;1769333;79;21205;-79
2022/05/04 07:11:22;;;;;;;8.08;4.12;;;27.20;85.70;;;;;;1832128;76;21107;-78
2022/05/04 07:13:52;;;;;;;7.97;4.00;;;27.20;85.20;;;;;;1826651;77;21587;-78
2022/05/04 07:16:23;;;;;;;4.58;3.58;;;27.20;85.40;;;;;;1831300;77;21613;-78
2022/05/04 07:18:54;;;;;;;5.00;3.65;;;27.20;85.80;;;;;;1830851;77;21182;-78
2022/05/04 07:21:25;;;;;;;4.08;2.80;;;27.20;85.50;;;;;;1828771;77;21151;-79
2022/05/04 07:23:59;;;;;;;4.47;3.08;;;27.20;84.80;;;;;;1850109;77;21139;-78
2022/05/04 07:26:30;;;;;;;7.95;3.17;;;27.30;84.00;;;;;;1794433;77;21586;-78
2022/05/04 07:29:01;;;;;;;5.90;3.05;;;27.30;84.40;;;;;;1746829;79;21150;-79
2022/05/04 07:31:32;;;;;;;5.15;3.12;;;27.20;84.80;;;;;;1811192;77;21205;-79
2022/05/04 07:34:03;;;;;;;4.12;3.10;;;27.20;85.30;;;;;;1815764;77;21162;-79
2022/05/04 07:36:34;;;;;;;5.97;2.98;;;27.30;84.40;;;;;;1825547;77;21171;-78
2022/05/04 07:39:05;;;;;;;7.92;3.47;;;27.30;84.50;;;;;;1820221;77;21194;-78
2022/05/04 07:44:09;;;;;;;6.45;3.95;;;27.30;84.90;;;;;;1828637;75;21397;-80
2022/05/04 07:46:41;;;;;;;5.10;3.25;;;27.30;85.10;;;;;;1826323;74;21193;-79
2022/05/04 07:49:12;;;;;;;5.35;3.22;;;27.30;84.80;;;;;;1760566;77;21134;-79
2022/05/04 07:51:43;;;;;;;7.25;3.72;;;27.30;84.90;;;;;;1744311;79;21282;-78
2022/05/04 07:54:15;;;;;;;5.12;3.35;;;27.30;84.60;;;;;;1799564;77;21609;-80
2022/05/04 07:56:46;;;;;;;4.78;3.55;;;27.30;84.90;;;;;;1809334;75;21625;-80
2022/05/04 07:59:18;;;;;;;5.70;3.60;;;27.20;85.60;;;;;;1820448;77;21204;-81
2022/05/04 08:04:21;;;;;;;7.70;4.12;;;27.20;86.20;;;;;;1801758;77;21133;-79
2022/05/04 08:06:52;;;;;;;5.80;4.00;;;27.10;86.10;;;;;;1825695;76;21160;-80
2022/05/04 08:09:23;;;;;;;5.10;3.20;;;27.10;86.40;;;;;;1813382;77;21182;-79
2022/05/04 08:11:54;;;;;;;5.95;3.15;;;27.10;86.20;;;;;;1796935;77;21179;-78
2022/05/04 08:14:25;;;;;;;4.22;2.98;;;27.00;85.80;;;;;;1814288;77;21131;-78
2022/05/04 08:16:56;;;;;;;4.58;3.15;;;27.00;85.90;;;;;;1815362;77;21185;-79
2022/05/04 08:19:27;;;;;;;6.08;3.50;;;27.00;86.40;;;;;;1814333;77;22030;-77
2022/05/04 08:21:58;;;;;;;6.83;3.92;;;27.00;86.80;;;;;;1809583;77;21166;-77
2022/05/04 08:24:29;;;;;;;5.33;3.52;;;27.00;86.80;;;;;;1820175;77;21078;-79
2022/05/04 08:27:00;;;;;;;7.22;3.55;;;27.00;86.80;;;;;;1804066;77;21720;-78
2022/05/04 08:29:31;;;;;;;4.62;3.45;;;26.90;86.40;;;;;;1804320;77;22076;-79
2022/05/04 08:32:02;;;;;;;5.22;3.52;;;26.90;87.20;;;;;;1800512;77;21200;-79
2022/05/04 08:34:33;;;;;;;8.33;3.67;;;27.00;87.40;;;;;;1814287;77;21209;-78
2022/05/04 08:37:05;;;;;;;7.78;3.92;;;26.90;87.50;;;;;;1815209;77;21185;-78
2022/05/04 08:39:36;;;;;;;7.15;4.15;;;26.90;87.70;;;;;;1815653;77;21259;-79
2022/05/04 08:42:07;;;;;;;7.80;4.47;;;26.90;88.20;;;;;;1811436;77;21126;-79
2022/05/04 08:44:40;;;;;;;9.35;5.05;;;26.90;87.90;;;;;;1812773;78;21201;-79
2022/05/04 08:47:14;;;;;;;7.70;4.70;;;27.00;88.20;;;;;;1837692;77;21156;-79
2022/05/04 08:49:47;;;;;;;6.72;4.60;;;27.00;87.90;;;;;;1822773;77;21105;-79
2022/05/04 08:52:19;;;;;;;6.25;4.00;;;27.00;88.20;;;;;;1817765;77;21223;-78
2022/05/04 08:54:52;;;;;;;6.45;5.08;;;27.00;88.50;;;;;;1773765;78;21135;-77
2022/05/04 08:57:26;;;;;;;6.55;4.35;;;26.90;88.70;;;;;;1778290;80;21658;-79
2022/05/04 08:59:57;;;;;;;8.70;4.40;;;26.90;88.80;;;;;;1813671;78;21198;-80
2022/05/04 09:02:28;;;;;;;6.10;4.15;;;26.90;89.20;;;;;;1825260;77;21668;-79
2022/05/04 09:05:03;;;;;;;8.33;3.80;;;26.90;89.10;;;;;;1808972;76;21292;-80
2022/05/04 09:07:34;;;;;;;8.48;4.25;;;26.90;88.90;;;;;;1797744;78;22041;-78
2022/05/04 09:10:06;;;;;;;5.40;4.33;;;26.90;88.90;;;;;;1801570;77;21092;-78
2022/05/04 09:12:38;;;;;;;5.92;4.20;;;26.80;88.50;;;;;;1798537;78;21587;-78
2022/05/04 09:15:11;;;;;;;5.75;4.28;;;26.80;88.70;;;;;;1811896;79;21865;-79
2022/05/04 09:17:42;;;;;;;7.60;4.42;;;26.80;88.80;;;;;;1801060;78;21200;-79
2022/05/04 09:22:48;;;;;;;7.37;4.00;;;26.80;89.20;;;;;;1799702;77;21190;-79
2022/05/04 09:25:20;;;;;;;4.92;3.90;;;26.70;89.30;;;;;;1791363;78;21203;-79
2022/05/04 09:27:57;;;;;;;7.75;4.08;;;26.70;89.30;;;;;;1786868;79;21214;-78
2022/05/04 09:30:27;;;;;;;5.80;3.83;;;26.70;89.20;;;;;;1798443;78;21217;-79
2022/05/04 09:33:07;;;;;;;6.62;4.33;;;26.70;89.50;;;;;;1811045;77;21247;-79
2022/05/04 09:35:40;;;;;;;8.30;5.50;;;26.60;89.90;;;;;;1823941;77;21283;-78
2022/05/04 09:45:56;;;;;;;6.33;4.58;;;26.60;89.90;;;;;;1784369;78;21251;-79
2022/05/04 09:48:30;;;;;;;6.97;4.25;;;26.50;90.10;;;;;;1811408;77;21721;-80
2022/05/04 09:51:04;;;;;;;7.25;4.60;;;26.50;90.40;;;;;;1811818;75;21180;-79
2022/05/04 09:53:39;;;;;;;6.78;4.50;;;26.50;90.60;;;;;;1785145;78;21165;-79
2022/05/04 09:56:09;;;;;;;9.43;4.78;;;26.50;90.50;;;;;;1811208;77;21222;-79
2022/05/04 09:58:41;;;;;;;6.20;5.00;;;26.50;90.60;;;;;;1812323;77;21269;-80
2022/05/04 10:01:15;;;;;;;8.60;5.22;;;26.50;90.90;;;;;;1811674;77;21622;-80
2022/05/04 10:03:48;;;;;;;8.03;4.67;;;26.50;91.00;;;;;;1812508;78;21610;-79
2022/05/04 10:06:19;;;;;;;8.25;4.95;;;26.40;90.90;;;;;;1755912;79;21165;-80
2022/05/04 10:08:49;;;;;;;7.40;4.67;;;26.40;90.80;;;;;;1815171;77;21809;-80
2022/05/04 10:11:21;;;;;;;7.25;4.75;;;26.40;90.80;;;;;;1822032;76;21240;-80
2022/05/04 10:13:54;;;;;;;6.22;4.80;;;26.40;90.90;;;;;;1832650;75;21170;-79
2022/05/04 10:16:27;;;;;;;7.55;5.42;;;26.40;90.90;;;;;;1837104;77;21164;-79
2022/05/04 10:19:00;;;;;;;6.58;4.62;;;26.40;91.10;;;;;;1805962;77;21202;-79
2022/05/04 10:21:31;;;;;;;7.40;5.00;;;26.40;91.00;;;;;;1808910;77;21211;-77
2022/05/04 10:24:07;;;;;;;7.80;4.60;;;26.40;91.10;;;;;;1815111;77;21164;-79
2022/05/04 10:26:44;;;;;;;8.18;5.47;;;26.40;91.00;;;;;;1764748;80;21649;-79
2022/05/04 10:31:53;;;;;;;8.08;4.97;;;26.40;91.00;;;;;;1816811;77;21713;-78
2022/05/04 10:34:25;;;;;;;10.13;7.25;;;26.30;91.00;;;;;;1829064;77;21785;-79
2022/05/04 10:36:57;;;;;;;7.95;5.83;;;26.30;91.00;;;;;;1812244;78;21230;-78
2022/05/04 10:39:28;;;;;;;8.05;5.22;;;26.30;91.10;;;;;;1823895;77;21241;-78
2022/05/04 10:42:00;;;;;;;10.13;5.47;;;26.30;91.10;;;;;;1831493;77;21132;-78
2022/05/04 10:44:33;;;;;;;6.55;4.92;;;26.20;91.10;;;;;;1823189;76;21190;-79
2022/05/04 10:47:04;;;;;;;5.70;4.30;;;26.20;91.10;;;;;;1815307;76;21191;-79
2022/05/04 10:49:36;;;;;;;8.20;4.70;;;26.20;91.10;;;;;;1816128;77;21694;-78
2022/05/04 10:52:08;;;;;;;8.30;5.20;;;26.20;91.20;;;;;;1832263;77;22776;-78
2022/05/04 10:54:41;;;;;;;9.15;5.65;;;26.20;92.40;;;;;;1828389;77;21101;-78
2022/05/04 10:57:12;;;;;;;7.92;5.03;;;26.20;93.00;;;;;;1815019;76;21250;-78
2022/05/04 10:59:48;;;;;;;6.10;4.50;;;26.10;92.80;;;;;;1844557;76;21201;-78
2022/05/04 11:02:19;;;;;;;8.30;5.70;;;26.00;92.90;;;;;;1832007;77;21252;-78
2022/05/04 11:04:54;;;;;;;9.15;5.15;;;26.00;93.20;;;;;;1831315;77;21186;-80
2022/05/04 11:07:27;;;;;;;8.38;5.35;;;26.00;93.50;;;;;;1831937;77;21159;-80
2022/05/04 11:10:00;;;;;;;9.15;5.92;;;25.90;93.80;;;;;;1839078;77;21241;-78
2022/05/04 11:12:31;;;;;;;9.98;5.60;;;25.90;93.80;;;;;;1837164;77;21192;-78
2022/05/04 11:15:02;;;;;;;9.80;5.62;;;25.80;93.70;;;;;;1835300;77;21152;-79
2022/05/04 11:17:34;;;;;;;11.75;6.75;;;25.80;93.70;;;;;;1834560;77;21657;-78
2022/05/04 11:20:06;;;;;;;10.48;6.50;;;25.80;93.70;;;;;;1815823;77;21188;-79
2022/05/04 11:22:39;;;;;;;9.20;5.92;;;25.70;93.80;;;;;;1839668;77;21203;-79
2022/05/04 11:25:13;;;;;;;9.15;5.72;;;25.70;94.00;;;;;;1785847;79;21176;-79
2022/05/04 11:27:44;;;;;;;9.13;6.08;;;25.70;94.60;;;;;;1838686;76;21155;-80
2022/05/04 11:30:16;;;;;;;10.93;5.35;;;25.60;94.20;;;;;;1835138;77;21194;-79
2022/05/04 11:32:49;;;;;;;8.50;5.55;;;25.60;94.20;;;;;;1833232;77;21222;-78
2022/05/04 11:35:20;;;;;;;6.87;4.87;;;25.60;94.00;;;;;;1836327;77;21611;-79
2022/05/04 11:37:53;;;;;;;6.90;4.95;;;25.60;93.80;;;;;;1811375;77;21118;-78
2022/05/04 11:40:24;;;;;;;7.75;4.90;;;25.60;93.40;;;;;;1820416;76;21792;-77
2022/05/04 11:42:55;;;;;;;6.70;5.20;;;25.50;93.40;;;;;;1788383;78;21187;-77
2022/05/04 11:45:26;;;;;;;7.75;4.95;;;25.50;93.60;;;;;;1751422;80;21204;-78
2022/05/04 11:47:57;;;;;;;9.38;6.70;;;25.50;93.80;;;;;;1821968;77;21115;-80
2022/05/04 11:50:28;;;;;;;12.28;7.80;;;25.50;93.90;;;;;;1807214;77;21281;-80
2022/05/04 11:53:01;;;;;;;17.25;10.90;;;25.50;94.10;;;;;;1745789;81;22228;-79
2022/05/04 11:55:34;;;;;;;14.30;9.43;;;25.50;94.30;;;;;;1722540;81;21657;-79
2022/05/04 11:58:09;;;;;;;13.60;8.30;;;25.50;94.30;;;;;;1760864;79;21254;-79
2022/05/04 12:00:41;;;;;;;18.15;10.13;;;25.50;94.30;;;;;;1826962;77;21206;-78
2022/05/04 12:03:13;;;;;;;13.78;8.28;;;25.50;94.30;;;;;;1849410;77;21167;-79
2022/05/04 12:05:46;;;;;;;13.78;7.33;;;25.40;94.00;;;;;;1820915;77;21596;-77
2022/05/04 12:08:19;;;;;;;11.63;6.90;;;25.50;94.40;;;;;;1820456;77;21412;-80
2022/05/04 12:10:51;;;;;;;10.93;6.45;;;25.50;94.50;;;;;;1841243;77;21551;-79
2022/05/04 12:13:24;;;;;;;9.78;6.58;;;25.40;94.50;;;;;;1731897;80;21241;-79
2022/05/04 12:15:58;;;;;;;8.75;6.55;;;25.40;94.50;;;;;;1817007;77;21400;-79
2022/05/04 12:18:32;;;;;;;8.20;6.03;;;25.40;94.50;;;;;;1819485;78;21240;-79
2022/05/04 12:21:05;;;;;;;7.08;5.80;;;25.40;94.60;;;;;;1821396;76;21547;-79
2022/05/04 12:23:39;;;;;;;8.48;6.28;;;25.40;94.70;;;;;;1822576;77;21168;-78
2022/05/04 12:26:12;;;;;;;10.30;6.30;;;25.40;94.80;;;;;;1825099;77;21134;-79
2022/05/04 12:33:08;;;;;;;9.98;6.78;;;25.40;94.80;;;;;;1823698;77;21224;-79
2022/05/04 12:33:51;;;;;;;12.28;7.47;;;25.40;94.80;;;;;;1827928;76;21280;-79
2022/05/04 12:36:26;;;;;;;11.63;7.20;;;25.40;94.90;;;;;;1819753;77;21736;-79
2022/05/04 12:38:56;;;;;;;10.05;7.25;;;25.40;94.90;;;;;;1820393;77;21281;-79
2022/05/04 12:41:27;;;;;;;10.20;7.30;;;25.40;94.90;;;;;;1807533;77;21171;-78
2022/05/04 12:43:59;;;;;;;12.23;7.65;;;25.40;95.00;;;;;;1803534;77;21241;-77
2022/05/04 12:46:31;;;;;;;19.57;8.08;;;25.40;95.20;;;;;;1806053;77;21208;-80
2022/05/04 12:49:02;;;;;;;11.70;7.78;;;25.40;95.00;;;;;;1813501;78;21193;-80
2022/05/04 12:51:35;;;;;;;12.45;7.62;;;25.40;95.10;;;;;;1812510;77;21178;-78
2022/05/04 12:54:10;;;;;;;11.15;7.50;;;25.40;95.10;;;;;;1749075;79;21188;-79
2022/05/04 12:56:47;;;;;;;11.43;7.37;;;25.40;95.10;;;;;;1820055;77;21107;-78
2022/05/04 12:59:15;;;;;;;13.55;8.38;;;25.40;95.20;;;;;;1823899;77;21224;-79
2022/05/04 13:01:47;;;;;;;10.10;7.30;;;25.40;95.10;;;;;;1821307;77;21707;-78
2022/05/04 13:04:18;;;;;;;10.85;7.45;;;25.40;95.30;;;;;;1832656;77;21188;-76
2022/05/04 13:06:49;;;;;;;14.83;8.78;;;25.40;95.50;;;;;;1815161;77;21195;-79
2022/05/04 13:09:20;;;;;;;9.68;7.37;;;25.40;95.70;;;;;;1804244;77;21134;-78
2022/05/04 13:11:51;;;;;;;11.38;7.53;;;25.40;95.80;;;;;;1794666;77;21145;-78
2022/05/04 13:14:22;;;;;;;13.83;8.03;;;25.40;95.80;;;;;;1814546;77;21289;-79
2022/05/04 13:16:53;;;;;;;13.15;7.83;;;25.40;95.70;;;;;;1792765;77;21271;-78
2022/05/04 13:19:24;;;;;;;13.13;7.80;;;25.40;95.60;;;;;;1803551;77;21220;-79
2022/05/04 13:21:55;;;;;;;16.45;8.13;;;25.40;95.60;;;;;;1818859;77;21131;-78
2022/05/04 13:24:28;;;;;;;13.38;7.60;;;25.40;95.60;;;;;;1825155;77;21234;-78
2022/05/04 13:26:59;;;;;;;11.70;7.20;;;25.40;95.50;;;;;;1818144;76;21175;-78
2022/05/04 13:29:34;;;;;;;11.50;8.00;;;25.40;95.50;;;;;;1813190;77;21556;-78
2022/05/04 13:32:05;;;;;;;15.72;8.38;;;25.40;95.50;;;;;;1837865;77;21583;-79
2022/05/04 13:34:37;;;;;;;14.75;8.10;;;25.40;95.50;;;;;;1833256;77;21323;-78
2022/05/04 13:37:07;;;;;;;10.50;7.42;;;25.40;95.50;;;;;;1807067;76;21221;-77
2022/05/04 13:39:39;;;;;;;11.45;7.30;;;25.40;95.50;;;;;;1831687;77;21210;-78
2022/05/04 13:42:12;;;;;;;11.18;7.62;;;25.40;95.50;;;;;;1844487;77;21681;-78
2022/05/04 13:44:42;;;;;;;17.15;8.73;;;25.40;95.60;;;;;;1815299;77;21115;-79
2022/05/04 13:47:13;;;;;;;18.65;9.13;;;25.40;95.70;;;;;;1800055;77;21119;-76
2022/05/04 13:49:44;;;;;;;14.95;8.80;;;25.40;95.90;;;;;;1824606;77;21127;-77
2022/05/04 13:54:55;;;;;;;13.95;8.90;;;25.40;96.00;;;;;;1820159;77;21096;-78
2022/05/04 13:57:26;;;;;;;11.57;8.03;;;25.40;96.00;;;;;;1834501;77;21150;-77
2022/05/04 14:00:01;;;;;;;16.00;8.90;;;25.40;96.00;;;;;;1822432;77;21656;-78
2022/05/04 14:02:32;;;;;;;12.35;7.28;;;25.40;95.90;;;;;;1802893;77;21168;-79
2022/05/04 14:05:07;;;;;;;14.68;7.72;;;25.40;96.00;;;;;;1814962;76;21158;-78
2022/05/04 14:07:39;;;;;;;12.93;7.75;;;25.40;96.00;;;;;;1803382;78;21172;-79
2022/05/04 14:10:11;;;;;;;10.08;7.62;;;25.40;96.00;;;;;;1786442;78;21147;-78
2022/05/04 14:12:43;;;;;;;11.20;7.25;;;25.40;96.00;;;;;;1797450;78;22072;-78
2022/05/04 14:15:15;;;;;;;13.25;8.03;;;25.40;95.90;;;;;;1812320;77;21909;-78
2022/05/04 14:17:46;;;;;;;9.43;6.97;;;25.40;95.80;;;;;;1818518;78;21576;-79
2022/05/04 14:20:18;;;;;;;12.45;7.42;;;25.40;95.80;;;;;;1832346;77;21903;-78
2022/05/04 14:22:52;;;;;;;11.30;6.95;;;25.40;95.70;;;;;;1826494;77;21602;-78
2022/05/04 14:25:23;;;;;;;10.30;7.42;;;25.40;95.70;;;;;;1817508;77;21622;-78